sensor_id;sensor_type;location;lat;lon;timestamp;P1;durP1;ratioP1;P2;durP2;ratioP2
16543;SDS011;8384;47.996;7.786;2023-08-21T00:01:35;12.30;;;11.30;;
16543;SDS011;8384;47.996;7.786;2023-08-21T00:04:01;11.73;;;10.83;;
16543;SDS011;8384;47.996;7.786;2023-08-21T00:06:26;12.57;;;11.53;;
16543;SDS011;8384;47.996;7.786;2023-08-21T00:08:51;11.80;;;10.80;;
16543;SDS011;8384;47.996;7.786;2023-08-21T00:11:17;11.93;;;10.93;;
16543;SDS011;8384;47.996;7.786;2023-08-21T00:13:42;12.70;;;11.70;;
16543;SDS011;8384;47.996;7.786;2023-08-21T00:16:09;11.47;;;10.57;;
16543;SDS011;8384;47.996;7.786;2023-08-21T00:18:36;11.70;;;10.70;;
16543;SDS011;8384;47.996;7.786;2023-08-21T00:21:01;12.50;;;11.47;;
16543;SDS011;8384;47.996;7.786;2023-08-21T00:23:26;11.70;;;10.90;;
16543;SDS011;8384;47.996;7.786;2023-08-21T00:25:52;11.60;;;10.60;;
16543;SDS011;8384;47.996;7.786;2023-08-21T00:28:17;12.00;;;10.90;;
16543;SDS011;8384;47.996;7.786;2023-08-21T00:30:42;11.67;;;10.70;;
16543;SDS011;8384;47.996;7.786;2023-08-21T00:33:07;11.50;;;10.63;;
16543;SDS011;8384;47.996;7.786;2023-08-21T00:35:33;12.07;;;11.07;;
16543;SDS011;8384;47.996;7.786;2023-08-21T00:37:58;11.47;;;10.57;;
16543;SDS011;8384;47.996;7.786;2023-08-21T00:40:23;11.60;;;10.53;;
16543;SDS011;8384;47.996;7.786;2023-08-21T00:42:48;11.63;;;10.83;;
16543;SDS011;8384;47.996;7.786;2023-08-21T00:45:14;11.17;;;10.37;;
16543;SDS011;8384;47.996;7.786;2023-08-21T00:47:39;13.17;;;11.97;;
16543;SDS011;8384;47.996;7.786;2023-08-21T00:50:05;11.17;;;10.17;;
16543;SDS011;8384;47.996;7.786;2023-08-21T00:52:32;12.63;;;11.63;;
16543;SDS011;8384;47.996;7.786;2023-08-21T00:54:59;11.73;;;10.77;;
16543;SDS011;8384;47.996;7.786;2023-08-21T00:57:25;11.53;;;10.63;;
16543;SDS011;8384;47.996;7.786;2023-08-21T00:59:51;12.23;;;10.87;;
16543;SDS011;8384;47.996;7.786;2023-08-21T01:02:16;12.27;;;11.17;;
16543;SDS011;8384;47.996;7.786;2023-08-21T01:04:44;11.77;;;10.87;;
16543;SDS011;8384;47.996;7.786;2023-08-21T01:07:09;11.83;;;10.93;;
16543;SDS011;8384;47.996;7.786;2023-08-21T01:13:06;12.27;;;11.23;;
16543;SDS011;8384;47.996;7.786;2023-08-21T01:15:26;11.87;;;10.70;;
16543;SDS011;8384;47.996;7.786;2023-08-21T01:17:51;12.43;;;11.27;;
16543;SDS011;8384;47.996;7.786;2023-08-21T01:20:18;11.70;;;10.83;;
16543;SDS011;8384;47.996;7.786;2023-08-21T01:22:43;11.57;;;10.70;;
16543;SDS011;8384;47.996;7.786;2023-08-21T01:25:11;12.17;;;11.07;;
16543;SDS011;8384;47.996;7.786;2023-08-21T01:27:38;11.70;;;10.80;;
16543;SDS011;8384;47.996;7.786;2023-08-21T01:30:06;11.90;;;11.00;;
16543;SDS011;8384;47.996;7.786;2023-08-21T01:32:34;11.73;;;10.63;;
16543;SDS011;8384;47.996;7.786;2023-08-21T01:35:18;11.77;;;10.77;;
16543;SDS011;8384;47.996;7.786;2023-08-21T01:37:45;11.77;;;10.67;;
16543;SDS011;8384;47.996;7.786;2023-08-21T01:40:11;11.60;;;10.63;;
16543;SDS011;8384;47.996;7.786;2023-08-21T01:42:36;11.17;;;10.37;;
16543;SDS011;8384;47.996;7.786;2023-08-21T01:45:01;11.93;;;10.77;;
16543;SDS011;8384;47.996;7.786;2023-08-21T01:47:27;12.50;;;11.40;;
16543;SDS011;8384;47.996;7.786;2023-08-21T01:49:52;11.57;;;10.60;;
16543;SDS011;8384;47.996;7.786;2023-08-21T01:52:18;10.53;;;9.57;;
16543;SDS011;8384;47.996;7.786;2023-08-21T01:54:44;11.77;;;10.77;;
16543;SDS011;8384;47.996;7.786;2023-08-21T01:57:09;12.20;;;11.07;;
16543;SDS011;8384;47.996;7.786;2023-08-21T01:59:34;11.63;;;10.70;;
16543;SDS011;8384;47.996;7.786;2023-08-21T02:01:59;12.87;;;11.77;;
16543;SDS011;8384;47.996;7.786;2023-08-21T02:04:25;11.30;;;10.27;;
16543;SDS011;8384;47.996;7.786;2023-08-21T02:06:50;12.83;;;11.60;;
16543;SDS011;8384;47.996;7.786;2023-08-21T02:09:15;11.33;;;10.23;;
16543;SDS011;8384;47.996;7.786;2023-08-21T02:11:40;11.97;;;10.97;;
16543;SDS011;8384;47.996;7.786;2023-08-21T02:14:06;11.63;;;10.70;;
16543;SDS011;8384;47.996;7.786;2023-08-21T02:16:32;12.20;;;11.13;;
16543;SDS011;8384;47.996;7.786;2023-08-21T02:18:57;12.53;;;11.43;;
16543;SDS011;8384;47.996;7.786;2023-08-21T02:21:22;12.87;;;11.67;;
16543;SDS011;8384;47.996;7.786;2023-08-21T02:23:48;13.93;;;12.53;;
16543;SDS011;8384;47.996;7.786;2023-08-21T02:26:13;13.60;;;12.50;;
16543;SDS011;8384;47.996;7.786;2023-08-21T02:28:38;13.17;;;12.07;;
16543;SDS011;8384;47.996;7.786;2023-08-21T02:31:04;13.10;;;11.93;;
16543;SDS011;8384;47.996;7.786;2023-08-21T02:33:30;12.87;;;11.67;;
16543;SDS011;8384;47.996;7.786;2023-08-21T02:35:55;13.50;;;12.27;;
16543;SDS011;8384;47.996;7.786;2023-08-21T02:38:21;13.00;;;12.00;;
16543;SDS011;8384;47.996;7.786;2023-08-21T02:40:46;13.07;;;12.10;;
16543;SDS011;8384;47.996;7.786;2023-08-21T02:43:12;13.40;;;12.40;;
16543;SDS011;8384;47.996;7.786;2023-08-21T02:45:38;12.50;;;11.40;;
16543;SDS011;8384;47.996;7.786;2023-08-21T02:48:03;13.10;;;12.10;;
16543;SDS011;8384;47.996;7.786;2023-08-21T02:50:28;12.90;;;11.90;;
16543;SDS011;8384;47.996;7.786;2023-08-21T02:52:54;14.00;;;12.83;;
16543;SDS011;8384;47.996;7.786;2023-08-21T02:55:19;14.40;;;13.17;;
16543;SDS011;8384;47.996;7.786;2023-08-21T02:57:45;14.80;;;13.40;;
16543;SDS011;8384;47.996;7.786;2023-08-21T03:00:11;15.07;;;13.77;;
16543;SDS011;8384;47.996;7.786;2023-08-21T03:02:37;14.50;;;13.20;;
16543;SDS011;8384;47.996;7.786;2023-08-21T03:05:03;14.57;;;13.27;;
16543;SDS011;8384;47.996;7.786;2023-08-21T03:07:28;15.10;;;13.70;;
16543;SDS011;8384;47.996;7.786;2023-08-21T03:09:54;13.87;;;12.67;;
16543;SDS011;8384;47.996;7.786;2023-08-21T03:12:19;13.97;;;12.87;;
16543;SDS011;8384;47.996;7.786;2023-08-21T03:14:45;14.40;;;13.17;;
16543;SDS011;8384;47.996;7.786;2023-08-21T03:17:11;13.50;;;12.30;;
16543;SDS011;8384;47.996;7.786;2023-08-21T03:19:36;14.47;;;13.20;;
16543;SDS011;8384;47.996;7.786;2023-08-21T03:22:02;13.90;;;12.80;;
16543;SDS011;8384;47.996;7.786;2023-08-21T03:24:28;12.93;;;11.93;;
16543;SDS011;8384;47.996;7.786;2023-08-21T03:26:53;13.20;;;12.13;;
16543;SDS011;8384;47.996;7.786;2023-08-21T03:29:18;13.00;;;12.00;;
16543;SDS011;8384;47.996;7.786;2023-08-21T03:31:46;14.10;;;12.80;;
16543;SDS011;8384;47.996;7.786;2023-08-21T03:34:12;13.00;;;11.80;;
16543;SDS011;8384;47.996;7.786;2023-08-21T03:36:38;13.57;;;12.40;;
16543;SDS011;8384;47.996;7.786;2023-08-21T03:39:04;13.00;;;12.10;;
16543;SDS011;8384;47.996;7.786;2023-08-21T03:41:30;12.87;;;11.87;;
16543;SDS011;8384;47.996;7.786;2023-08-21T03:43:56;13.37;;;12.30;;
16543;SDS011;8384;47.996;7.786;2023-08-21T03:46:21;13.43;;;12.13;;
16543;SDS011;8384;47.996;7.786;2023-08-21T03:48:46;13.70;;;12.27;;
16543;SDS011;8384;47.996;7.786;2023-08-21T03:51:12;13.13;;;12.13;;
16543;SDS011;8384;47.996;7.786;2023-08-21T03:53:37;14.13;;;12.83;;
16543;SDS011;8384;47.996;7.786;2023-08-21T03:56:02;13.47;;;12.47;;
16543;SDS011;8384;47.996;7.786;2023-08-21T03:58:28;13.83;;;12.77;;
16543;SDS011;8384;47.996;7.786;2023-08-21T04:00:53;14.30;;;13.20;;
16543;SDS011;8384;47.996;7.786;2023-08-21T04:03:18;14.00;;;12.80;;
16543;SDS011;8384;47.996;7.786;2023-08-21T04:05:44;14.60;;;13.30;;
16543;SDS011;8384;47.996;7.786;2023-08-21T04:08:09;14.57;;;13.27;;
16543;SDS011;8384;47.996;7.786;2023-08-21T04:10:34;14.83;;;13.67;;
16543;SDS011;8384;47.996;7.786;2023-08-21T04:13:00;14.83;;;13.60;;
16543;SDS011;8384;47.996;7.786;2023-08-21T04:15:25;13.60;;;12.63;;
16543;SDS011;8384;47.996;7.786;2023-08-21T04:17:51;14.00;;;12.93;;
16543;SDS011;8384;47.996;7.786;2023-08-21T04:20:16;14.60;;;13.33;;
16543;SDS011;8384;47.996;7.786;2023-08-21T04:22:41;15.03;;;13.80;;
16543;SDS011;8384;47.996;7.786;2023-08-21T04:25:07;15.17;;;13.60;;
16543;SDS011;8384;47.996;7.786;2023-08-21T04:27:32;14.23;;;13.13;;
16543;SDS011;8384;47.996;7.786;2023-08-21T04:29:58;14.33;;;13.07;;
16543;SDS011;8384;47.996;7.786;2023-08-21T04:32:24;13.83;;;12.80;;
16543;SDS011;8384;47.996;7.786;2023-08-21T04:34:49;14.17;;;12.90;;
16543;SDS011;8384;47.996;7.786;2023-08-21T04:37:15;13.83;;;12.67;;
16543;SDS011;8384;47.996;7.786;2023-08-21T04:39:40;13.90;;;12.80;;
16543;SDS011;8384;47.996;7.786;2023-08-21T04:42:05;14.23;;;13.10;;
16543;SDS011;8384;47.996;7.786;2023-08-21T04:44:31;13.40;;;12.50;;
16543;SDS011;8384;47.996;7.786;2023-08-21T04:46:56;14.20;;;12.93;;
16543;SDS011;8384;47.996;7.786;2023-08-21T04:49:21;13.87;;;12.53;;
16543;SDS011;8384;47.996;7.786;2023-08-21T04:51:46;13.83;;;12.63;;
16543;SDS011;8384;47.996;7.786;2023-08-21T04:54:12;14.57;;;13.40;;
16543;SDS011;8384;47.996;7.786;2023-08-21T04:56:37;15.93;;;14.47;;
16543;SDS011;8384;47.996;7.786;2023-08-21T04:59:02;15.27;;;14.07;;
16543;SDS011;8384;47.996;7.786;2023-08-21T05:01:27;13.90;;;12.83;;
16543;SDS011;8384;47.996;7.786;2023-08-21T05:03:53;14.10;;;13.10;;
16543;SDS011;8384;47.996;7.786;2023-08-21T05:06:19;14.83;;;13.53;;
16543;SDS011;8384;47.996;7.786;2023-08-21T05:08:45;14.37;;;13.07;;
16543;SDS011;8384;47.996;7.786;2023-08-21T05:11:10;14.30;;;12.90;;
16543;SDS011;8384;47.996;7.786;2023-08-21T05:13:35;15.50;;;14.10;;
16543;SDS011;8384;47.996;7.786;2023-08-21T05:16:00;15.10;;;13.87;;
16543;SDS011;8384;47.996;7.786;2023-08-21T05:18:26;14.23;;;13.23;;
16543;SDS011;8384;47.996;7.786;2023-08-21T05:20:53;14.50;;;13.43;;
16543;SDS011;8384;47.996;7.786;2023-08-21T05:23:19;14.60;;;13.20;;
16543;SDS011;8384;47.996;7.786;2023-08-21T05:25:45;14.93;;;13.47;;
16543;SDS011;8384;47.996;7.786;2023-08-21T05:28:10;13.67;;;12.57;;
16543;SDS011;8384;47.996;7.786;2023-08-21T05:30:36;13.77;;;12.77;;
16543;SDS011;8384;47.996;7.786;2023-08-21T05:33:02;13.10;;;12.20;;
16543;SDS011;8384;47.996;7.786;2023-08-21T05:35:28;14.10;;;12.87;;
16543;SDS011;8384;47.996;7.786;2023-08-21T05:37:53;13.73;;;12.63;;
16543;SDS011;8384;47.996;7.786;2023-08-21T05:40:19;13.30;;;12.10;;
16543;SDS011;8384;47.996;7.786;2023-08-21T05:42:44;13.87;;;12.67;;
16543;SDS011;8384;47.996;7.786;2023-08-21T05:45:10;13.80;;;12.60;;
16543;SDS011;8384;47.996;7.786;2023-08-21T05:47:35;13.90;;;12.80;;
16543;SDS011;8384;47.996;7.786;2023-08-21T05:50:00;14.00;;;12.80;;
16543;SDS011;8384;47.996;7.786;2023-08-21T05:52:25;13.17;;;12.17;;
16543;SDS011;8384;47.996;7.786;2023-08-21T05:54:51;13.60;;;12.47;;
16543;SDS011;8384;47.996;7.786;2023-08-21T05:57:16;13.37;;;12.27;;
16543;SDS011;8384;47.996;7.786;2023-08-21T05:59:45;14.53;;;13.33;;
16543;SDS011;8384;47.996;7.786;2023-08-21T06:02:12;14.07;;;12.97;;
16543;SDS011;8384;47.996;7.786;2023-08-21T06:04:39;13.77;;;12.67;;
16543;SDS011;8384;47.996;7.786;2023-08-21T06:07:05;14.47;;;13.37;;
16543;SDS011;8384;47.996;7.786;2023-08-21T06:09:31;13.87;;;12.77;;
16543;SDS011;8384;47.996;7.786;2023-08-21T06:11:58;14.70;;;13.60;;
16543;SDS011;8384;47.996;7.786;2023-08-21T06:14:25;13.40;;;12.40;;
16543;SDS011;8384;47.996;7.786;2023-08-21T06:16:54;13.83;;;12.60;;
16543;SDS011;8384;47.996;7.786;2023-08-21T06:19:21;14.00;;;13.00;;
16543;SDS011;8384;47.996;7.786;2023-08-21T06:21:46;14.10;;;12.83;;
16543;SDS011;8384;47.996;7.786;2023-08-21T06:24:11;12.40;;;11.40;;
16543;SDS011;8384;47.996;7.786;2023-08-21T06:26:37;13.37;;;12.07;;
16543;SDS011;8384;47.996;7.786;2023-08-21T06:29:02;12.77;;;11.80;;
16543;SDS011;8384;47.996;7.786;2023-08-21T06:31:27;13.33;;;11.93;;
16543;SDS011;8384;47.996;7.786;2023-08-21T06:33:52;14.20;;;12.90;;
16543;SDS011;8384;47.996;7.786;2023-08-21T06:36:19;13.73;;;12.33;;
16543;SDS011;8384;47.996;7.786;2023-08-21T06:38:44;13.50;;;12.20;;
16543;SDS011;8384;47.996;7.786;2023-08-21T06:41:09;13.90;;;12.57;;
16543;SDS011;8384;47.996;7.786;2023-08-21T06:43:35;13.10;;;11.87;;
16543;SDS011;8384;47.996;7.786;2023-08-21T06:46:01;13.37;;;12.03;;
16543;SDS011;8384;47.996;7.786;2023-08-21T06:48:26;13.43;;;12.37;;
16543;SDS011;8384;47.996;7.786;2023-08-21T06:50:51;13.47;;;12.27;;
16543;SDS011;8384;47.996;7.786;2023-08-21T06:53:17;12.93;;;11.73;;
16543;SDS011;8384;47.996;7.786;2023-08-21T06:55:44;12.53;;;11.47;;
16543;SDS011;8384;47.996;7.786;2023-08-21T06:58:10;12.43;;;11.23;;
16543;SDS011;8384;47.996;7.786;2023-08-21T07:00:35;12.60;;;11.40;;
16543;SDS011;8384;47.996;7.786;2023-08-21T07:03:00;13.17;;;11.90;;
16543;SDS011;8384;47.996;7.786;2023-08-21T07:05:25;13.27;;;11.87;;
16543;SDS011;8384;47.996;7.786;2023-08-21T07:07:51;12.80;;;11.30;;
16543;SDS011;8384;47.996;7.786;2023-08-21T07:10:16;12.47;;;11.33;;
16543;SDS011;8384;47.996;7.786;2023-08-21T07:12:41;12.73;;;11.53;;
16543;SDS011;8384;47.996;7.786;2023-08-21T07:15:06;12.13;;;10.87;;
16543;SDS011;8384;47.996;7.786;2023-08-21T07:17:32;11.50;;;10.40;;
16543;SDS011;8384;47.996;7.786;2023-08-21T07:19:57;12.33;;;11.27;;
16543;SDS011;8384;47.996;7.786;2023-08-21T07:22:23;11.10;;;10.10;;
16543;SDS011;8384;47.996;7.786;2023-08-21T07:24:48;11.60;;;10.60;;
16543;SDS011;8384;47.996;7.786;2023-08-21T07:27:13;10.73;;;9.83;;
16543;SDS011;8384;47.996;7.786;2023-08-21T07:29:39;11.80;;;10.70;;
16543;SDS011;8384;47.996;7.786;2023-08-21T07:32:04;10.63;;;9.63;;
16543;SDS011;8384;47.996;7.786;2023-08-21T07:34:29;11.20;;;10.30;;
16543;SDS011;8384;47.996;7.786;2023-08-21T07:36:55;11.27;;;10.13;;
16543;SDS011;8384;47.996;7.786;2023-08-21T07:39:20;11.07;;;10.07;;
16543;SDS011;8384;47.996;7.786;2023-08-21T07:41:45;11.20;;;10.20;;
16543;SDS011;8384;47.996;7.786;2023-08-21T07:44:10;11.60;;;10.50;;
16543;SDS011;8384;47.996;7.786;2023-08-21T07:46:36;10.10;;;9.20;;
16543;SDS011;8384;47.996;7.786;2023-08-21T07:49:01;9.83;;;8.93;;
16543;SDS011;8384;47.996;7.786;2023-08-21T07:51:26;10.30;;;9.43;;
16543;SDS011;8384;47.996;7.786;2023-08-21T07:53:52;9.80;;;9.00;;
16543;SDS011;8384;47.996;7.786;2023-08-21T07:56:17;11.73;;;10.33;;
16543;SDS011;8384;47.996;7.786;2023-08-21T07:58:42;10.87;;;9.73;;
16543;SDS011;8384;47.996;7.786;2023-08-21T08:01:07;10.23;;;9.33;;
16543;SDS011;8384;47.996;7.786;2023-08-21T08:03:33;10.37;;;9.40;;
16543;SDS011;8384;47.996;7.786;2023-08-21T08:05:58;10.23;;;9.43;;
16543;SDS011;8384;47.996;7.786;2023-08-21T08:08:23;10.73;;;9.73;;
16543;SDS011;8384;47.996;7.786;2023-08-21T08:10:49;9.67;;;8.97;;
16543;SDS011;8384;47.996;7.786;2023-08-21T08:13:14;9.70;;;8.80;;
16543;SDS011;8384;47.996;7.786;2023-08-21T08:15:39;9.63;;;8.83;;
16543;SDS011;8384;47.996;7.786;2023-08-21T08:18:06;9.70;;;8.83;;
16543;SDS011;8384;47.996;7.786;2023-08-21T08:20:36;9.00;;;8.30;;
16543;SDS011;8384;47.996;7.786;2023-08-21T08:23:01;9.90;;;8.87;;
16543;SDS011;8384;47.996;7.786;2023-08-21T08:25:26;9.77;;;8.30;;
16543;SDS011;8384;47.996;7.786;2023-08-21T08:27:52;9.63;;;8.50;;
16543;SDS011;8384;47.996;7.786;2023-08-21T08:30:17;9.00;;;8.20;;
16543;SDS011;8384;47.996;7.786;2023-08-21T08:32:42;9.80;;;9.00;;
16543;SDS011;8384;47.996;7.786;2023-08-21T08:35:10;9.50;;;8.60;;
16543;SDS011;8384;47.996;7.786;2023-08-21T08:37:37;10.17;;;9.27;;
16543;SDS011;8384;47.996;7.786;2023-08-21T08:40:02;9.33;;;8.57;;
16543;SDS011;8384;47.996;7.786;2023-08-21T08:42:28;9.53;;;8.73;;
16543;SDS011;8384;47.996;7.786;2023-08-21T08:44:54;11.33;;;8.27;;
16543;SDS011;8384;47.996;7.786;2023-08-21T08:47:19;9.80;;;8.90;;
16543;SDS011;8384;47.996;7.786;2023-08-21T08:49:46;9.97;;;9.20;;
16543;SDS011;8384;47.996;7.786;2023-08-21T08:52:13;9.47;;;8.67;;
16543;SDS011;8384;47.996;7.786;2023-08-21T08:54:42;9.73;;;8.87;;
16543;SDS011;8384;47.996;7.786;2023-08-21T08:57:07;11.03;;;9.93;;
16543;SDS011;8384;47.996;7.786;2023-08-21T08:59:33;9.63;;;8.83;;
16543;SDS011;8384;47.996;7.786;2023-08-21T09:01:58;9.30;;;8.50;;
16543;SDS011;8384;47.996;7.786;2023-08-21T09:04:23;9.40;;;8.70;;
16543;SDS011;8384;47.996;7.786;2023-08-21T09:06:49;10.17;;;9.20;;
16543;SDS011;8384;47.996;7.786;2023-08-21T09:09:14;9.80;;;9.03;;
16543;SDS011;8384;47.996;7.786;2023-08-21T09:11:43;9.00;;;8.40;;
16543;SDS011;8384;47.996;7.786;2023-08-21T09:14:09;9.83;;;9.10;;
16543;SDS011;8384;47.996;7.786;2023-08-21T09:16:34;9.87;;;8.97;;
16543;SDS011;8384;47.996;7.786;2023-08-21T09:19:00;9.33;;;8.60;;
16543;SDS011;8384;47.996;7.786;2023-08-21T09:21:25;9.60;;;8.70;;
16543;SDS011;8384;47.996;7.786;2023-08-21T09:23:59;9.93;;;9.03;;
16543;SDS011;8384;47.996;7.786;2023-08-21T09:26:26;9.80;;;9.00;;
16543;SDS011;8384;47.996;7.786;2023-08-21T09:28:52;9.80;;;8.90;;
16543;SDS011;8384;47.996;7.786;2023-08-21T09:31:22;9.03;;;8.33;;
16543;SDS011;8384;47.996;7.786;2023-08-21T09:33:58;10.13;;;9.20;;
16543;SDS011;8384;47.996;7.786;2023-08-21T09:36:26;9.33;;;8.60;;
16543;SDS011;8384;47.996;7.786;2023-08-21T09:38:52;9.63;;;8.73;;
16543;SDS011;8384;47.996;7.786;2023-08-21T09:41:21;10.50;;;9.50;;
16543;SDS011;8384;47.996;7.786;2023-08-21T09:43:50;10.00;;;9.13;;
16543;SDS011;8384;47.996;7.786;2023-08-21T09:46:16;9.57;;;8.60;;
16543;SDS011;8384;47.996;7.786;2023-08-21T09:48:43;8.87;;;8.17;;
16543;SDS011;8384;47.996;7.786;2023-08-21T09:51:11;9.73;;;8.83;;
16543;SDS011;8384;47.996;7.786;2023-08-21T09:53:36;11.73;;;8.60;;
16543;SDS011;8384;47.996;7.786;2023-08-21T09:56:02;8.93;;;8.27;;
16543;SDS011;8384;47.996;7.786;2023-08-21T09:58:28;9.80;;;8.97;;
16543;SDS011;8384;47.996;7.786;2023-08-21T10:00:55;9.30;;;8.50;;
16543;SDS011;8384;47.996;7.786;2023-08-21T10:03:24;8.77;;;8.00;;
16543;SDS011;8384;47.996;7.786;2023-08-21T10:05:50;9.40;;;8.60;;
16543;SDS011;8384;47.996;7.786;2023-08-21T10:08:18;9.40;;;8.50;;
16543;SDS011;8384;47.996;7.786;2023-08-21T10:10:48;9.93;;;9.03;;
16543;SDS011;8384;47.996;7.786;2023-08-21T10:13:14;9.33;;;8.43;;
16543;SDS011;8384;47.996;7.786;2023-08-21T10:15:40;9.17;;;8.37;;
16543;SDS011;8384;47.996;7.786;2023-08-21T10:18:23;9.33;;;8.43;;
16543;SDS011;8384;47.996;7.786;2023-08-21T10:20:50;8.97;;;8.20;;
16543;SDS011;8384;47.996;7.786;2023-08-21T10:23:27;9.00;;;8.17;;
16543;SDS011;8384;47.996;7.786;2023-08-21T10:25:55;8.53;;;7.73;;
16543;SDS011;8384;47.996;7.786;2023-08-21T10:28:21;8.37;;;7.67;;
16543;SDS011;8384;47.996;7.786;2023-08-21T10:30:47;8.03;;;7.40;;
16543;SDS011;8384;47.996;7.786;2023-08-21T10:33:13;7.40;;;6.67;;
16543;SDS011;8384;47.996;7.786;2023-08-21T10:35:38;8.30;;;7.50;;
16543;SDS011;8384;47.996;7.786;2023-08-21T10:38:18;8.20;;;7.40;;
16543;SDS011;8384;47.996;7.786;2023-08-21T10:43:50;7.97;;;7.17;;
16543;SDS011;8384;47.996;7.786;2023-08-21T10:46:16;7.17;;;6.57;;
16543;SDS011;8384;47.996;7.786;2023-08-21T10:48:41;7.27;;;6.67;;
16543;SDS011;8384;47.996;7.786;2023-08-21T10:51:07;7.77;;;7.27;;
16543;SDS011;8384;47.996;7.786;2023-08-21T10:53:34;7.80;;;7.10;;
16543;SDS011;8384;47.996;7.786;2023-08-21T10:56:02;7.80;;;7.07;;
16543;SDS011;8384;47.996;7.786;2023-08-21T10:58:38;7.70;;;6.90;;
16543;SDS011;8384;47.996;7.786;2023-08-21T11:01:06;7.67;;;6.97;;
16543;SDS011;8384;47.996;7.786;2023-08-21T11:03:31;8.03;;;7.23;;
16543;SDS011;8384;47.996;7.786;2023-08-21T11:06:01;10.00;;;6.97;;
16543;SDS011;8384;47.996;7.786;2023-08-21T11:08:28;7.43;;;6.73;;
16543;SDS011;8384;47.996;7.786;2023-08-21T11:10:53;8.07;;;7.33;;
16543;SDS011;8384;47.996;7.786;2023-08-21T11:13:19;8.10;;;7.40;;
16543;SDS011;8384;47.996;7.786;2023-08-21T11:15:44;8.00;;;7.30;;
16543;SDS011;8384;47.996;7.786;2023-08-21T11:18:10;7.17;;;6.47;;
16543;SDS011;8384;47.996;7.786;2023-08-21T11:20:35;6.83;;;6.23;;
16543;SDS011;8384;47.996;7.786;2023-08-21T11:23:02;7.23;;;6.53;;
16543;SDS011;8384;47.996;7.786;2023-08-21T11:25:31;8.03;;;7.30;;
16543;SDS011;8384;47.996;7.786;2023-08-21T11:27:57;7.70;;;7.00;;
16543;SDS011;8384;47.996;7.786;2023-08-21T11:30:23;7.37;;;6.87;;
16543;SDS011;8384;47.996;7.786;2023-08-21T11:35:35;8.37;;;7.10;;
16543;SDS011;8384;47.996;7.786;2023-08-21T11:38:01;9.83;;;7.67;;
16543;SDS011;8384;47.996;7.786;2023-08-21T11:40:26;10.20;;;7.43;;
16543;SDS011;8384;47.996;7.786;2023-08-21T11:42:51;7.63;;;6.93;;
16543;SDS011;8384;47.996;7.786;2023-08-21T11:45:19;7.23;;;6.73;;
16543;SDS011;8384;47.996;7.786;2023-08-21T11:47:45;7.60;;;6.93;;
16543;SDS011;8384;47.996;7.786;2023-08-21T11:50:11;8.37;;;7.57;;
16543;SDS011;8384;47.996;7.786;2023-08-21T11:52:38;7.80;;;7.10;;
16543;SDS011;8384;47.996;7.786;2023-08-21T11:55:06;8.53;;;7.27;;
16543;SDS011;8384;47.996;7.786;2023-08-21T11:57:33;8.10;;;7.30;;
16543;SDS011;8384;47.996;7.786;2023-08-21T11:59:58;7.57;;;6.77;;
16543;SDS011;8384;47.996;7.786;2023-08-21T12:02:27;7.53;;;6.83;;
16543;SDS011;8384;47.996;7.786;2023-08-21T12:04:54;7.87;;;6.80;;
16543;SDS011;8384;47.996;7.786;2023-08-21T12:07:25;7.37;;;6.70;;
16543;SDS011;8384;47.996;7.786;2023-08-21T12:09:50;7.37;;;6.60;;
16543;SDS011;8384;47.996;7.786;2023-08-21T12:12:16;7.33;;;6.70;;
16543;SDS011;8384;47.996;7.786;2023-08-21T12:14:41;7.57;;;6.87;;
16543;SDS011;8384;47.996;7.786;2023-08-21T12:17:06;8.03;;;7.30;;
16543;SDS011;8384;47.996;7.786;2023-08-21T12:19:32;8.03;;;7.33;;
16543;SDS011;8384;47.996;7.786;2023-08-21T12:21:57;7.07;;;6.50;;
16543;SDS011;8384;47.996;7.786;2023-08-21T12:24:23;8.33;;;7.50;;
16543;SDS011;8384;47.996;7.786;2023-08-21T12:26:49;10.13;;;7.47;;
16543;SDS011;8384;47.996;7.786;2023-08-21T12:29:14;9.70;;;7.47;;
16543;SDS011;8384;47.996;7.786;2023-08-21T12:31:39;7.70;;;7.10;;
16543;SDS011;8384;47.996;7.786;2023-08-21T12:34:04;7.57;;;6.90;;
16543;SDS011;8384;47.996;7.786;2023-08-21T12:36:30;7.37;;;6.57;;
16543;SDS011;8384;47.996;7.786;2023-08-21T12:38:55;7.97;;;7.00;;
16543;SDS011;8384;47.996;7.786;2023-08-21T12:41:20;8.03;;;7.33;;
16543;SDS011;8384;47.996;7.786;2023-08-21T12:43:46;7.50;;;6.77;;
16543;SDS011;8384;47.996;7.786;2023-08-21T12:46:11;7.43;;;6.73;;
16543;SDS011;8384;47.996;7.786;2023-08-21T12:48:36;7.47;;;6.77;;
16543;SDS011;8384;47.996;7.786;2023-08-21T12:51:02;7.70;;;7.10;;
16543;SDS011;8384;47.996;7.786;2023-08-21T12:53:27;7.53;;;6.20;;
16543;SDS011;8384;47.996;7.786;2023-08-21T12:55:53;7.00;;;6.30;;
16543;SDS011;8384;47.996;7.786;2023-08-21T12:58:18;7.10;;;6.50;;
16543;SDS011;8384;47.996;7.786;2023-08-21T13:00:44;7.00;;;6.40;;
16543;SDS011;8384;47.996;7.786;2023-08-21T13:03:09;7.27;;;6.67;;
16543;SDS011;8384;47.996;7.786;2023-08-21T13:05:34;7.07;;;6.47;;
16543;SDS011;8384;47.996;7.786;2023-08-21T13:08:00;9.83;;;6.93;;
16543;SDS011;8384;47.996;7.786;2023-08-21T13:10:25;6.83;;;6.10;;
16543;SDS011;8384;47.996;7.786;2023-08-21T13:12:50;7.57;;;6.43;;
16543;SDS011;8384;47.996;7.786;2023-08-21T13:15:16;8.10;;;6.40;;
16543;SDS011;8384;47.996;7.786;2023-08-21T13:17:42;7.37;;;6.47;;
16543;SDS011;8384;47.996;7.786;2023-08-21T13:20:08;8.70;;;6.20;;
16543;SDS011;8384;47.996;7.786;2023-08-21T13:22:48;8.90;;;6.17;;
16543;SDS011;8384;47.996;7.786;2023-08-21T13:25:19;6.63;;;6.03;;
16543;SDS011;8384;47.996;7.786;2023-08-21T13:27:45;8.97;;;6.37;;
16543;SDS011;8384;47.996;7.786;2023-08-21T13:30:11;11.77;;;6.77;;
16543;SDS011;8384;47.996;7.786;2023-08-21T13:32:37;6.63;;;5.90;;
16543;SDS011;8384;47.996;7.786;2023-08-21T13:35:03;7.50;;;6.17;;
16543;SDS011;8384;47.996;7.786;2023-08-21T13:37:33;6.87;;;6.37;;
16543;SDS011;8384;47.996;7.786;2023-08-21T13:39:58;6.77;;;6.17;;
16543;SDS011;8384;47.996;7.786;2023-08-21T13:42:25;7.07;;;6.23;;
16543;SDS011;8384;47.996;7.786;2023-08-21T13:44:50;6.97;;;6.27;;
16543;SDS011;8384;47.996;7.786;2023-08-21T13:47:16;7.33;;;6.43;;
16543;SDS011;8384;47.996;7.786;2023-08-21T13:49:41;8.53;;;5.57;;
16543;SDS011;8384;47.996;7.786;2023-08-21T13:52:06;7.00;;;6.30;;
16543;SDS011;8384;47.996;7.786;2023-08-21T13:54:32;6.87;;;6.13;;
16543;SDS011;8384;47.996;7.786;2023-08-21T13:56:57;7.23;;;6.53;;
16543;SDS011;8384;47.996;7.786;2023-08-21T13:59:24;6.50;;;5.77;;
16543;SDS011;8384;47.996;7.786;2023-08-21T14:01:49;6.53;;;5.87;;
16543;SDS011;8384;47.996;7.786;2023-08-21T14:04:14;9.40;;;6.53;;
16543;SDS011;8384;47.996;7.786;2023-08-21T14:06:40;8.23;;;6.50;;
16543;SDS011;8384;47.996;7.786;2023-08-21T14:09:05;8.07;;;6.10;;
16543;SDS011;8384;47.996;7.786;2023-08-21T14:11:30;8.67;;;6.23;;
16543;SDS011;8384;47.996;7.786;2023-08-21T14:13:56;6.53;;;5.90;;
16543;SDS011;8384;47.996;7.786;2023-08-21T14:16:21;7.80;;;6.10;;
16543;SDS011;8384;47.996;7.786;2023-08-21T14:18:46;6.53;;;5.87;;
16543;SDS011;8384;47.996;7.786;2023-08-21T14:21:12;8.20;;;5.63;;
16543;SDS011;8384;47.996;7.786;2023-08-21T14:23:37;7.00;;;5.50;;
16543;SDS011;8384;47.996;7.786;2023-08-21T14:26:04;6.30;;;5.70;;
16543;SDS011;8384;47.996;7.786;2023-08-21T14:28:29;7.10;;;6.10;;
16543;SDS011;8384;47.996;7.786;2023-08-21T14:30:54;6.03;;;5.27;;
16543;SDS011;8384;47.996;7.786;2023-08-21T14:33:20;5.73;;;5.30;;
16543;SDS011;8384;47.996;7.786;2023-08-21T14:35:46;5.97;;;5.47;;
16543;SDS011;8384;47.996;7.786;2023-08-21T14:38:11;6.37;;;5.03;;
16543;SDS011;8384;47.996;7.786;2023-08-21T14:40:36;7.20;;;5.20;;
16543;SDS011;8384;47.996;7.786;2023-08-21T14:43:02;5.27;;;4.77;;
16543;SDS011;8384;47.996;7.786;2023-08-21T14:45:27;7.27;;;5.30;;
16543;SDS011;8384;47.996;7.786;2023-08-21T14:47:52;6.37;;;5.37;;